Time;durP1;ratioP1;P1;durP2;ratioP2;P2;SDS_P1;SDS_P2;PMS_P1;PMS_P2;Temp;Humidity;BMP_temperature;BMP_pressure;BME280_temperature;BME280_humidity;BME280_pressure;Samples;Min_cycle;Max_cycle;Signal;HPM_P1;HPM_P2
2022/02/10 00:21:02;;;;;;;;;;;;;;;;;;5089690;28;19965;-66
2022/02/10 00:34:42;;;;;;;;;;;;;;;;;;5078770;28;19915;-66
2022/02/10 00:37:13;;;;;;;;;;;;;;;;;;5084740;28;19912;-66
2022/02/10 00:42:23;;;;;;;;;;;;;;;;;;5057614;28;20418;-66
2022/02/10 00:44:49;;;;;;;;;;;;;;;;;;5090540;28;19998;-66
2022/02/10 00:47:15;;;;;;;;;;;;;;;;;;5087909;28;19915;-66
2022/02/10 00:49:41;;;;;;;;;;;;;;;;;;5085153;28;19950;-66
2022/02/10 00:52:08;;;;;;;;;;;;;;;;;;5085308;28;20383;-66
2022/02/10 00:54:36;;;;;;;;;;;;;;;;;;5084647;28;20374;-66
2022/02/10 00:57:06;;;;;;;;;;;;;;;;;;5086544;28;19999;-65
2022/02/10 01:12:45;;;;;;;;;;;;;;;;;;5084480;28;19915;-66
2022/02/10 01:31:40;;;;;;;;;;;;;;;;;;5080408;28;19915;-65
2022/02/10 01:34:07;;;;;;;;;;;;;;;;;;5084246;28;19908;-65
2022/02/10 01:36:33;;;;;;;;;;;;;;;;;;5083940;28;19915;-65
2022/02/10 01:38:58;;;;;;;;;;;;;;;;;;5086980;28;20107;-65
2022/02/10 01:58:04;;;;;;;;;;;;;;;;;;5083610;28;20337;-65
2022/02/10 02:03:28;;;;;;;;;;;;;;;;;;5054006;28;19916;-65
2022/02/10 02:06:22;;;;;;;;;;;;;;;;;;5087266;28;19946;-65
2022/02/10 02:08:41;;;;;;;;;;;;;;;;;;5083320;28;19916;-65
2022/02/10 02:11:07;;;;;;;;;;;;;;;;;;5085210;28;19904;-66
2022/02/10 02:13:33;;;;;;;;;;;;;;;;;;5083651;28;19998;-65
2022/02/10 02:15:59;;;;;;;;;;;;;;;;;;5083062;28;20279;-65
2022/02/10 02:18:25;;;;;;;;;;;;;;;;;;5083556;28;20356;-66
2022/02/10 02:20:50;;;;;;;;;;;;;;;;;;5088368;28;19904;-65
2022/02/10 02:23:16;;;;;;;;;;;;;;;;;;5086336;28;19908;-65
2022/02/10 02:25:43;;;;;;;;;;;;;;;;;;5083101;28;19908;-65
2022/02/10 02:28:09;;;;;;;;;;;;;;;;;;5083272;28;20018;-65
2022/02/10 02:30:50;;;;;;;;;;;;;;;;;;5079851;28;20116;-65
2022/02/10 02:36:15;;;;;;;;;;;;;;;;;;5089307;28;19967;-66
2022/02/10 03:08:21;;;;;;;;;;;;;;;;;;5085931;28;19945;-64
2022/02/10 03:13:21;;;;;;;;;;;;;;;;;;5082928;28;19977;-64
2022/02/10 04:17:01;;;;;;;;;;;;;;;;;;5073564;28;19904;-65
2022/02/10 04:22:28;;;;;;;;;;;;;;;;;;5071372;28;20356;-64
2022/02/10 04:55:05;;;;;;;;;;;;;;;;;;5085201;28;20328;-64
2022/02/10 04:57:51;;;;;;;;;;;;;;;;;;5056664;28;19913;-64
2022/02/10 05:14:48;;;;;;;;;;;;;;;;;;5084524;28;19974;-64
2022/02/10 05:24:27;;;;;;;;;;;;;;;;;;5054643;28;19916;-64
2022/02/10 05:34:53;;;;;;;;;;;;;;;;;;5073056;28;20356;-65
2022/02/10 05:37:20;;;;;;;;;;;;;;;;;;5068523;28;19908;-64
2022/02/10 05:39:49;;;;;;;;;;;;;;;;;;5071896;28;19933;-64
2022/02/10 05:47:55;;;;;;;;;;;;;;;;;;5074204;28;19908;-63
2022/02/10 05:51:37;;;;;;;;;;;;;;;;;;5071248;28;20003;-64
2022/02/10 05:58:25;;;;;;;;;;;;;;;;;;5071510;28;19912;-64
2022/02/10 06:47:26;;;;;;;;;;;;;;;;;;5080571;28;19908;-66
2022/02/10 06:52:35;;;;;;;;;;;;;;;;;;5077654;28;19930;-67
2022/02/10 07:16:35;;;;;;;;;;;;;;;;;;5082497;28;19908;-66
2022/02/10 08:55:56;;;;;;;;;;;;;;;;;;5083017;28;19903;-67
2022/02/10 09:06:33;;;;;;;;;;;;;;;;;;5083239;28;19908;-67
2022/02/10 09:12:00;;;;;;;;;;;;;;;;;;5089264;28;20023;-66
2022/02/10 09:19:56;;;;;;;;;;;;;;;;;;5082349;28;19904;-65
2022/02/10 10:02:55;;;;;;;;;;;;;;;;;;5082453;28;19911;-66
2022/02/10 10:05:44;;;;;;;;;;;;;;;;;;5089002;28;19912;-66
2022/02/10 10:20:48;;;;;;;;;;;;;;;;;;5090741;28;19958;-66
2022/02/10 10:45:50;;;;;;;;;;;;;;;;;;5088397;28;19958;-66
2022/02/10 10:50:16;;;;;;;;;;;;;;;;;;5082598;28;20283;-66
2022/02/10 10:53:04;;;;;;;;;;;;;;;;;;5082169;28;19915;-65
2022/02/10 10:58:12;;;;;;;;;;;;;;;;;;5082524;28;19915;-66
2022/02/10 11:01:06;;;;;;;;;;;;;;;;;;5079285;28;20346;-66
2022/02/10 11:23:15;;;;;;;;;;;;;;;;;;5071507;28;19927;-66
2022/02/10 11:38:53;;;;;;;;;;;;;;;;;;5071743;28;19915;-63
2022/02/10 11:41:31;;;;;;;;;;;;;;;;;;5072227;28;19908;-61
2022/02/10 12:00:47;;;;;;;;;;;;;;;;;;5069637;28;20474;-61
2022/02/10 13:50:39;;;;;;;;;;;;;;;;;;5073116;28;19935;-66
2022/02/10 14:13:56;;;;;;;;;;;;;;;;;;5083190;28;19956;-66
2022/02/10 14:16:59;;;;;;;;;;;;;;;;;;5082584;28;20006;-66
2022/02/10 14:20:11;;;;;;;;;;;;;;;;;;5082461;28;19908;-67
2022/02/10 14:22:37;;;;;;;;;;;;;;;;;;5074654;28;20339;-67
2022/02/10 14:27:31;;;;;;;;;;;;;;;;;;5082857;28;20569;-66
2022/02/10 14:29:57;;;;;;;;;;;;;;;;;;5074917;28;19908;-66
2022/02/10 14:32:28;;;;;;;;;;;;;;;;;;5087370;28;20012;-66
2022/02/10 14:35:00;;;;;;;;;;;;;;;;;;5070294;28;19915;-66
2022/02/10 14:37:48;;;;;;;;;;;;;;;;;;5068945;28;20394;-66
2022/02/10 15:29:24;;;;;;;;;;;;;;;;;;5055968;28;19915;-69
2022/02/10 15:55:33;;;;;;;;;;;;;;;;;;5066131;28;20348;-64
2022/02/10 16:17:05;;;;;;;;;;;;;;;;;;5055026;28;19971;-62
2022/02/10 16:19:32;;;;;;;;;;;;;;;;;;5055221;28;20353;-63
2022/02/10 16:22:02;;;;;;;;;;;;;;;;;;5054817;28;19971;-64
2022/02/10 16:24:31;;;;;;;;;;;;;;;;;;5053046;28;19916;-63
2022/02/10 16:26:59;;;;;;;;;;;;;;;;;;5052899;28;19905;-61
2022/02/10 16:29:25;;;;;;;;;;;;;;;;;;5063298;28;20295;-62
2022/02/10 16:31:51;;;;;;;;;;;;;;;;;;5071440;28;19960;-63
2022/02/10 16:34:17;;;;;;;;;;;;;;;;;;5061887;28;19908;-64
2022/02/10 16:36:45;;;;;;;;;;;;;;;;;;5066360;28;19908;-64
2022/02/10 16:39:11;;;;;;;;;;;;;;;;;;5065703;28;19913;-63
2022/02/10 16:41:37;;;;;;;;;;;;;;;;;;5054259;28;20011;-66
2022/02/10 16:44:03;;;;;;;;;;;;;;;;;;5052726;28;19916;-63
2022/02/10 16:46:29;;;;;;;;;;;;;;;;;;5057893;28;19918;-66
2022/02/10 16:48:55;;;;;;;;;;;;;;;;;;5061893;28;20386;-63
2022/02/10 16:51:22;;;;;;;;;;;;;;;;;;5045842;28;19916;-65
2022/02/10 16:53:53;;;;;;;;;;;;;;;;;;5047327;28;20403;-64
2022/02/10 16:56:23;;;;;;;;;;;;;;;;;;5058134;28;19989;-66
2022/02/10 16:59:25;;;;;;;;;;;;;;;;;;5059082;28;19912;-66
2022/02/10 17:02:12;;;;;;;;;;;;;;;;;;5049401;28;19916;-65
2022/02/10 17:04:37;;;;;;;;;;;;;;;;;;5049408;28;20016;-65
2022/02/10 17:20:25;;;;;;;;;;;;;;;;;;5081091;28;19959;-68
2022/02/10 17:25:38;;;;;;;;;;;;;;;;;;5082049;28;20355;-69
2022/02/10 17:28:06;;;;;;;;;;;;;;;;;;5083792;28;19961;-67
2022/02/10 17:31:01;;;;;;;;;;;;;;;;;;5072340;28;19916;-69
2022/02/10 17:54:32;;;;;;;;;;;;;;;;;;5072706;28;19969;-66
2022/02/10 17:56:57;;;;;;;;;;;;;;;;;;5086172;28;19904;-66
2022/02/10 17:59:24;;;;;;;;;;;;;;;;;;5070081;28;19916;-66
2022/02/10 18:01:50;;;;;;;;;;;;;;;;;;5074938;28;19919;-67
2022/02/10 18:04:16;;;;;;;;;;;;;;;;;;5078026;28;19920;-66
2022/02/10 18:06:45;;;;;;;;;;;;;;;;;;5077796;28;20571;-66
2022/02/10 18:17:09;;;;;;;;;;;;;;;;;;5073181;28;20143;-64
2022/02/10 18:19:47;;;;;;;;;;;;;;;;;;5070679;28;19923;-64
2022/02/10 18:24:57;;;;;;;;;;;;;;;;;;5076629;28;19920;-64
2022/02/10 18:27:31;;;;;;;;;;;;;;;;;;5072202;28;19956;-64
2022/02/10 19:08:20;;;;;;;;;;;;;;;;;;5082190;28;19946;-66
2022/02/10 19:10:22;;;;;;;;;;;;;;;;;;5067054;28;19998;-66
2022/02/10 19:12:53;;;;;;;;;;;;;;;;;;5070031;28;19983;-64
2022/02/10 19:15:22;;;;;;;;;;;;;;;;;;5070030;28;19919;-64
2022/02/10 19:17:48;;;;;;;;;;;;;;;;;;5087392;28;19947;-64
2022/02/10 19:20:14;;;;;;;;;;;;;;;;;;5084277;28;20383;-64
2022/02/10 19:22:41;;;;;;;;;;;;;;;;;;5081133;28;19916;-64
2022/02/10 19:25:07;;;;;;;;;;;;;;;;;;5084009;28;19916;-65
2022/02/10 19:27:33;;;;;;;;;;;;;;;;;;5086251;28;19912;-64
2022/02/10 19:29:59;;;;;;;;;;;;;;;;;;5077264;28;20314;-64
2022/02/10 19:32:28;;;;;;;;;;;;;;;;;;5090351;28;20305;-65
2022/02/10 19:34:57;;;;;;;;;;;;;;;;;;5085718;28;19953;-64
2022/02/10 19:37:23;;;;;;;;;;;;;;;;;;5086242;28;20325;-65
2022/02/10 19:40:02;;;;;;;;;;;;;;;;;;5078004;28;19912;-65
2022/02/10 19:42:30;;;;;;;;;;;;;;;;;;5084322;28;19912;-64
2022/02/10 19:45:00;;;;;;;;;;;;;;;;;;5082423;28;20409;-63
2022/02/10 19:47:25;;;;;;;;;;;;;;;;;;5075940;28;19909;-64
2022/02/10 19:49:51;;;;;;;;;;;;;;;;;;5073987;28;20335;-61
2022/02/10 19:52:18;;;;;;;;;;;;;;;;;;5073676;28;19961;-63
2022/02/10 19:54:49;;;;;;;;;;;;;;;;;;5072273;28;19904;-65
2022/02/10 19:57:17;;;;;;;;;;;;;;;;;;5071447;28;19912;-65
2022/02/10 19:59:43;;;;;;;;;;;;;;;;;;5074149;28;20318;-60
2022/02/10 20:02:09;;;;;;;;;;;;;;;;;;5073709;28;19920;-64
2022/02/10 20:04:35;;;;;;;;;;;;;;;;;;5071572;28;20388;-67
2022/02/10 20:07:01;;;;;;;;;;;;;;;;;;5073532;28;19954;-67
2022/02/10 20:09:27;;;;;;;;;;;;;;;;;;5072394;28;20379;-67
2022/02/10 20:11:54;;;;;;;;;;;;;;;;;;5071851;28;19912;-62
2022/02/10 20:14:21;;;;;;;;;;;;;;;;;;5074601;28;19918;-64
2022/02/10 20:16:47;;;;;;;;;;;;;;;;;;5073324;28;20322;-64
2022/02/10 20:19:13;;;;;;;;;;;;;;;;;;5072695;28;19912;-65
2022/02/10 20:21:39;;;;;;;;;;;;;;;;;;5072963;28;19947;-65
2022/02/10 20:24:05;;;;;;;;;;;;;;;;;;5070614;28;19919;-65
2022/02/10 20:26:30;;;;;;;;;;;;;;;;;;5075120;28;19919;-65
2022/02/10 20:28:56;;;;;;;;;;;;;;;;;;5073586;28;19969;-65
2022/02/10 20:31:23;;;;;;;;;;;;;;;;;;5073699;28;19965;-65
2022/02/10 20:33:49;;;;;;;;;;;;;;;;;;5073480;28;19934;-65
2022/02/10 20:36:15;;;;;;;;;;;;;;;;;;5082896;28;20356;-65
2022/02/10 20:38:45;;;;;;;;;;;;;;;;;;5092498;28;20324;-65
2022/02/10 20:41:14;;;;;;;;;;;;;;;;;;5086479;28;19904;-65
2022/02/10 20:43:40;;;;;;;;;;;;;;;;;;5084854;28;19915;-65
2022/02/10 20:46:09;;;;;;;;;;;;;;;;;;5084398;28;19920;-65
2022/02/10 20:48:37;;;;;;;;;;;;;;;;;;5084102;28;19915;-65
2022/02/10 20:51:03;;;;;;;;;;;;;;;;;;5086178;28;20318;-65
2022/02/10 20:53:29;;;;;;;;;;;;;;;;;;5090232;28;20042;-65
2022/02/10 20:55:55;;;;;;;;;;;;;;;;;;5084618;28;20341;-65
2022/02/10 20:58:22;;;;;;;;;;;;;;;;;;5084557;28;20003;-65
2022/02/10 21:00:50;;;;;;;;;;;;;;;;;;5083915;28;19912;-65
2022/02/10 21:03:16;;;;;;;;;;;;;;;;;;5086052;28;19916;-65
2022/02/10 21:05:44;;;;;;;;;;;;;;;;;;5071984;28;20426;-65
2022/02/10 21:08:16;;;;;;;;;;;;;;;;;;5072080;28;19987;-65
2022/02/10 21:10:42;;;;;;;;;;;;;;;;;;5071444;28;19998;-65
2022/02/10 21:13:10;;;;;;;;;;;;;;;;;;5070897;28;19953;-65
2022/02/10 21:15:41;;;;;;;;;;;;;;;;;;5069885;28;19913;-65
2022/02/10 21:18:08;;;;;;;;;;;;;;;;;;5071086;28;19908;-65
2022/02/10 21:20:35;;;;;;;;;;;;;;;;;;5072509;28;19940;-65
2022/02/10 21:23:27;;;;;;;;;;;;;;;;;;5083107;28;20379;-65
2022/02/10 21:25:48;;;;;;;;;;;;;;;;;;5083009;28;19950;-64
2022/02/10 21:28:18;;;;;;;;;;;;;;;;;;5083690;28;20308;-64
2022/02/10 21:30:45;;;;;;;;;;;;;;;;;;5072389;28;19907;-64
2022/02/10 21:39:02;;;;;;;;;;;;;;;;;;5084067;28;19908;-65
2022/02/10 22:06:17;;;;;;;;;;;;;;;;;;5087598;28;19926;-65
2022/02/10 22:21:31;;;;;;;;;;;;;;;;;;5083250;28;19920;-65
2022/02/10 22:23:57;;;;;;;;;;;;;;;;;;5087394;28;20228;-65
2022/02/10 22:26:26;;;;;;;;;;;;;;;;;;5087133;28;19908;-64
2022/02/10 22:29:03;;;;;;;;;;;;;;;;;;5077524;28;20368;-64
2022/02/10 22:34:09;;;;;;;;;;;;;;;;;;5082660;28;20007;-65
2022/02/10 22:36:37;;;;;;;;;;;;;;;;;;5082740;28;20394;-65
2022/02/10 22:39:03;;;;;;;;;;;;;;;;;;5085129;28;19951;-64
2022/02/10 22:41:29;;;;;;;;;;;;;;;;;;5088752;28;19961;-64
2022/02/10 22:43:55;;;;;;;;;;;;;;;;;;5082812;28;20278;-64
2022/02/10 22:46:21;;;;;;;;;;;;;;;;;;5082256;28;19995;-64
2022/02/10 22:48:48;;;;;;;;;;;;;;;;;;5082395;28;20022;-65
2022/02/10 22:51:14;;;;;;;;;;;;;;;;;;5082942;28;19915;-64
2022/02/10 22:53:40;;;;;;;;;;;;;;;;;;5090672;28;20000;-65
2022/02/10 22:56:06;;;;;;;;;;;;;;;;;;5082382;28;19908;-64
2022/02/10 22:58:31;;;;;;;;;;;;;;;;;;5077800;28;19916;-65
2022/02/10 23:00:57;;;;;;;;;;;;;;;;;;5081878;28;19955;-64
2022/02/10 23:03:23;;;;;;;;;;;;;;;;;;5082729;28;19971;-65
2022/02/10 23:05:49;;;;;;;;;;;;;;;;;;5087475;28;19923;-64
2022/02/10 23:08:15;;;;;;;;;;;;;;;;;;5085338;28;20332;-63
2022/02/10 23:10:48;;;;;;;;;;;;;;;;;;5082692;28;19908;-63
2022/02/10 23:13:14;;;;;;;;;;;;;;;;;;5082329;28;19912;-63
2022/02/10 23:15:40;;;;;;;;;;;;;;;;;;5082431;28;19953;-63
2022/02/10 23:18:06;;;;;;;;;;;;;;;;;;5083705;28;19920;-64
2022/02/10 23:20:32;;;;;;;;;;;;;;;;;;5088764;28;19908;-63
2022/02/10 23:22:58;;;;;;;;;;;;;;;;;;5082266;28;19916;-63
2022/02/10 23:25:26;;;;;;;;;;;;;;;;;;5082084;28;20439;-63
2022/02/10 23:27:52;;;;;;;;;;;;;;;;;;5080107;28;19914;-63
2022/02/10 23:30:18;;;;;;;;;;;;;;;;;;5070965;28;19909;-64
2022/02/10 23:32:44;;;;;;;;;;;;;;;;;;5088863;28;19904;-64
2022/02/10 23:35:32;;;;;;;;;;;;;;;;;;5083448;28;19908;-64
2022/02/10 23:37:56;;;;;;;;;;;;;;;;;;5082339;28;20409;-64
2022/02/10 23:40:22;;;;;;;;;;;;;;;;;;5082133;28;19908;-64
2022/02/10 23:42:52;;;;;;;;;;;;;;;;;;5081903;28;20010;-64
2022/02/10 23:45:23;;;;;;;;;;;;;;;;;;5081254;28;19920;-64
2022/02/10 23:47:49;;;;;;;;;;;;;;;;;;5088061;28;19978;-65
2022/02/10 23:50:18;;;;;;;;;;;;;;;;;;5084715;28;20316;-64
2022/02/10 23:52:46;;;;;;;;;;;;;;;;;;5081657;28;20470;-64
2022/02/10 23:55:18;;;;;;;;;;;;;;;;;;5080709;28;19954;-64
2022/02/10 23:57:56;;;;;;;;;;;;;;;;;;5082376;28;19931;-64
